Ashton, IL (61006)

4:04 AM CDT on August 30, 2015 (GMT -0500)
MesoWest | | Change Station
CLOSE
Current Station
Personal Weather Station
Location: Ashton, IL
Elevation: 782 ft
Nearby Weather Stations

Elev 782 ft 41.90 °N, 89.13 °W | Updated 1 hour ago

Fog
Fog
69.0 °F
Feels Like 69.0 °F
N
0.0
Wind Variable Wind from North
Gusts 0.0 mph

Today
High -- | Low -- °F
--% Chance of Precip.
Yesterday
High -- | Low -- °F
Precip. -- in
6:20 AM 7:33 PM
Waxing Gibbous, 99% visible
Pressure 30.04 in
Visibility 3.0 miles
Clouds Scattered Clouds 600 ft
Overcast 2900 ft
Dew Point Not available.
Humidity Not available.
Rainfall in
Snow Depth Not available.
UV 0 out of 12
Pollen .70 out of 12
Air Quality Not available.
Flu Activity Not available.
METAR KRPJ 300855Z AUTO 00000KT 3SM BR SCT006 OVC029 18/18 A3004 RMK AO2 T01810178
Pressure 30.04 in
Visibility 3.0 miles
Clouds Scattered Clouds 600 ft
Overcast 2900 ft
Dew Point Not available.
Humidity Not available.
Rainfall in
Snow Depth Not available.
UV 0 out of 12
Pollen .70 out of 12
Air Quality Not available.
Flu Activity Not available.
METAR KRPJ 300855Z AUTO 00000KT 3SM BR SCT006 OVC029 18/18 A3004 RMK AO2 T01810178

10-Day Weather Forecast

×

Almanac

Astronomy

Aug. 30, 2015 Rise Set
Actual Time
Civil Twilight
Nautical Twilight
Astronomical Twilight
Moon
Length of Visible Light
Length of Day
Tomorrow will be .
, % of the Moon is Illuminated

Today's Extremes

State Highs State Lows

Community

WunderPhotos

Upload Photos

1,850,909 photos uploaded!

WunderBlogs® & News

Nearby

Air Quality

  Air Quality AQ Index Pollutant
Not available.

Snow Depth

Station Depth Elevation

Earthquake Activity

City Distance Mag. Time & Date
Minimum magnitude displayed is 2.5.

Coastal Water Temperatures

Place Temperature

Stations

Nearby Weather Stations

Station Location Temp. Windchill Dew Point Humidity Wind Precip. Elev Updated Type